Time;durP1;ratioP1;P1;durP2;ratioP2;P2;SDS_P1;SDS_P2;PMS_P1;PMS_P2;Temp;Humidity;BMP_temperature;BMP_pressure;BME280_temperature;BME280_humidity;BME280_pressure;Samples;Min_cycle;Max_cycle;Signal;HPM_P1;HPM_P2
2023/06/02 00:02:17;;;;;;;7.90;4.87;;;;;;;;;;5002023;28;20018;-78
2023/06/02 00:04:44;;;;;;;9.60;4.70;;;;;;;;;;5007008;28;20097;-79
2023/06/02 00:07:11;;;;;;;13.13;4.63;;;;;;;;;;5016828;28;20018;-78
2023/06/02 00:09:42;;;;;;;8.00;4.50;;;;;;;;;;5004338;28;20045;-78
2023/06/02 00:12:09;;;;;;;7.90;4.07;;;;;;;;;;5002809;28;20021;-78
2023/06/02 00:14:38;;;;;;;9.23;4.60;;;;;;;;;;5004073;28;20014;-79
2023/06/02 00:17:04;;;;;;;9.20;4.27;;;;;;;;;;5004554;28;20014;-77
2023/06/02 00:19:31;;;;;;;8.50;4.20;;;;;;;;;;5020968;28;20074;-78
2023/06/02 00:21:57;;;;;;;9.57;4.47;;;;;;;;;;5002789;28;20029;-78
2023/06/02 00:24:24;;;;;;;11.13;4.20;;;;;;;;;;5001096;28;20029;-77
2023/06/02 00:26:50;;;;;;;10.07;4.40;;;;;;;;;;5019437;28;20072;-78
2023/06/02 00:29:16;;;;;;;14.97;5.50;;;;;;;;;;5003581;28;20089;-78
2023/06/02 00:31:42;;;;;;;11.57;6.23;;;;;;;;;;5015350;28;20049;-78
2023/06/02 00:34:08;;;;;;;10.43;6.30;;;;;;;;;;5001360;28;20106;-79
2023/06/02 00:36:35;;;;;;;10.57;6.00;;;;;;;;;;5003556;28;20021;-81
2023/06/02 00:39:01;;;;;;;11.27;7.40;;;;;;;;;;5016392;28;20025;-79
2023/06/02 00:41:27;;;;;;;14.50;9.23;;;;;;;;;;5001116;28;20010;-79
2023/06/02 00:43:53;;;;;;;18.07;11.10;;;;;;;;;;5000370;28;20026;-79
2023/06/02 00:46:19;;;;;;;16.63;10.47;;;;;;;;;;5003647;28;20007;-78
2023/06/02 00:48:47;;;;;;;16.57;11.23;;;;;;;;;;5012185;28;20045;-79
2023/06/02 00:51:13;;;;;;;18.87;10.57;;;;;;;;;;5000349;28;20022;-77
2023/06/02 00:53:42;;;;;;;17.03;11.57;;;;;;;;;;4998908;28;20058;-81
2023/06/02 00:56:08;;;;;;;15.30;10.43;;;;;;;;;;5013972;28;20038;-78
2023/06/02 00:58:37;;;;;;;15.87;10.07;;;;;;;;;;5001073;28;20046;-79
2023/06/02 01:01:03;;;;;;;20.20;9.93;;;;;;;;;;5002458;28;20034;-77
2023/06/02 01:03:29;;;;;;;14.23;9.30;;;;;;;;;;4999917;28;20065;-78
2023/06/02 01:05:56;;;;;;;13.73;9.63;;;;;;;;;;4996181;28;20018;-78
2023/06/02 01:08:25;;;;;;;15.63;8.77;;;;;;;;;;5003544;28;20035;-80
2023/06/02 01:10:52;;;;;;;11.13;8.20;;;;;;;;;;5003888;28;20021;-79
2023/06/02 01:13:18;;;;;;;13.43;7.73;;;;;;;;;;5003412;28;20025;-78
2023/06/02 01:15:46;;;;;;;12.33;6.93;;;;;;;;;;5007854;28;20020;-80
2023/06/02 01:18:12;;;;;;;10.17;6.00;;;;;;;;;;5009149;28;20026;-78
2023/06/02 01:20:51;;;;;;;9.93;5.73;;;;;;;;;;5009929;28;20082;-78
2023/06/02 01:23:22;;;;;;;8.47;5.47;;;;;;;;;;5002881;28;20194;-78
2023/06/02 01:25:55;;;;;;;9.60;5.63;;;;;;;;;;5017695;28;20041;-78
2023/06/02 01:28:21;;;;;;;;;;;;;;;;;;5020279;28;20050;-78
2023/06/02 01:30:52;;;;;;;7.27;5.27;;;;;;;;;;5002653;28;19932;-78
2023/06/02 01:33:27;;;;;;;10.30;6.23;;;;;;;;;;5007621;28;20066;-77
2023/06/02 01:35:59;;;;;;;8.03;5.37;;;;;;;;;;5015282;28;20026;-78
2023/06/02 01:38:28;;;;;;;7.73;5.63;;;;;;;;;;4998568;28;20156;-79
2023/06/02 01:40:56;;;;;;;9.43;6.20;;;;;;;;;;4997378;28;20034;-78
2023/06/02 01:43:23;;;;;;;9.87;5.20;;;;;;;;;;5015114;28;20053;-79
2023/06/02 01:45:49;;;;;;;8.53;5.43;;;;;;;;;;5013210;28;20026;-80
2023/06/02 01:48:15;;;;;;;10.67;5.73;;;;;;;;;;5003138;28;20073;-79
2023/06/02 01:50:43;;;;;;;6.83;5.10;;;;;;;;;;5003127;28;20033;-79
2023/06/02 01:53:10;;;;;;;12.40;6.10;;;;;;;;;;5017817;28;20077;-79
2023/06/02 01:55:39;;;;;;;10.63;6.70;;;;;;;;;;5003654;28;20028;-78
2023/06/02 01:58:05;;;;;;;9.80;5.33;;;;;;;;;;5003072;28;20025;-78
2023/06/02 02:00:31;;;;;;;9.33;5.63;;;;;;;;;;4998448;28;20090;-78
2023/06/02 02:03:00;;;;;;;10.10;5.17;;;;;;;;;;5015330;28;20038;-79
2023/06/02 02:05:26;;;;;;;10.03;4.83;;;;;;;;;;5017239;28;20027;-79
2023/06/02 02:07:52;;;;;;;11.27;5.33;;;;;;;;;;5001835;28;20090;-78
2023/06/02 02:10:18;;;;;;;11.17;5.60;;;;;;;;;;4999133;28;20029;-78
2023/06/02 02:12:45;;;;;;;6.37;5.20;;;;;;;;;;4999788;28;20014;-79
2023/06/02 02:15:11;;;;;;;14.87;7.20;;;;;;;;;;5018658;28;20050;-79
2023/06/02 02:17:44;;;;;;;8.47;5.50;;;;;;;;;;4998364;28;20027;-78
2023/06/02 02:20:13;;;;;;;12.60;7.53;;;;;;;;;;5014945;28;20090;-78
2023/06/02 02:22:39;;;;;;;10.10;6.53;;;;;;;;;;5001713;28;20046;-80
2023/06/02 02:25:06;;;;;;;9.83;6.90;;;;;;;;;;5013272;28;20094;-78
2023/06/02 02:27:34;;;;;;;11.80;6.83;;;;;;;;;;5013792;28;20069;-78
2023/06/02 02:30:00;;;;;;;10.77;7.73;;;;;;;;;;5001078;28;20086;-78
2023/06/02 02:32:26;;;;;;;9.97;7.00;;;;;;;;;;5011816;28;20098;-79
2023/06/02 02:34:53;;;;;;;13.67;6.93;;;;;;;;;;5016812;28;20053;-78
2023/06/02 02:37:19;;;;;;;8.80;5.93;;;;;;;;;;4998058;28;20007;-80
2023/06/02 02:39:45;;;;;;;7.93;5.97;;;;;;;;;;4998513;28;20061;-78
2023/06/02 02:42:11;;;;;;;11.57;6.13;;;;;;;;;;5003531;28;20132;-78
2023/06/02 02:44:38;;;;;;;14.57;6.50;;;;;;;;;;5003596;28;20036;-79
2023/06/02 02:47:04;;;;;;;12.47;6.37;;;;;;;;;;4995115;28;20091;-77
2023/06/02 02:49:30;;;;;;;9.77;5.67;;;;;;;;;;5016576;28;20038;-78
2023/06/02 02:51:58;;;;;;;11.60;6.50;;;;;;;;;;4997441;28;20014;-79
2023/06/02 02:54:26;;;;;;;12.60;6.53;;;;;;;;;;4998814;28;20196;-78
2023/06/02 02:56:54;;;;;;;9.53;5.93;;;;;;;;;;5001187;28;20094;-80
2023/06/02 02:59:20;;;;;;;13.60;5.73;;;;;;;;;;4995950;28;20018;-77
2023/06/02 03:01:47;;;;;;;14.93;6.40;;;;;;;;;;4998374;28;20018;-78
2023/06/02 03:04:21;;;;;;;10.10;5.90;;;;;;;;;;4998302;28;20042;-81
2023/06/02 03:06:50;;;;;;;9.70;5.70;;;;;;;;;;5006787;28;20034;-77
2023/06/02 03:09:26;;;;;;;12.57;5.80;;;;;;;;;;5000043;28;20141;-80
2023/06/02 03:11:53;;;;;;;13.97;5.73;;;;;;;;;;5017148;28;20037;-79
2023/06/02 03:14:19;;;;;;;8.60;6.17;;;;;;;;;;5000217;28;20085;-77
2023/06/02 03:16:48;;;;;;;20.53;6.67;;;;;;;;;;5001170;28;20015;-78
2023/06/02 03:19:23;;;;;;;10.73;5.67;;;;;;;;;;5010660;28;21325;-79
2023/06/02 03:21:51;;;;;;;11.60;6.13;;;;;;;;;;4998074;28;20010;-78
2023/06/02 03:24:18;;;;;;;10.33;5.97;;;;;;;;;;5015163;28;20033;-79
2023/06/02 03:26:45;;;;;;;10.97;5.23;;;;;;;;;;5012049;28;20039;-77
2023/06/02 03:29:16;;;;;;;8.80;5.80;;;;;;;;;;4999293;28;20505;-81
2023/06/02 03:31:45;;;;;;;10.57;5.30;;;;;;;;;;5014921;28;20026;-79
2023/06/02 03:34:14;;;;;;;14.20;6.13;;;;;;;;;;4999811;28;21597;-77
2023/06/02 03:36:43;;;;;;;13.50;5.60;;;;;;;;;;5012304;28;20042;-80
2023/06/02 03:39:12;;;;;;;15.90;4.93;;;;;;;;;;5015749;28;20027;-79
2023/06/02 03:41:39;;;;;;;17.27;6.90;;;;;;;;;;4996048;28;20018;-79
2023/06/02 03:44:07;;;;;;;12.53;6.10;;;;;;;;;;4997803;28;20026;-79
2023/06/02 03:46:34;;;;;;;11.57;8.33;;;;;;;;;;5000014;28;20046;-79
2023/06/02 03:49:03;;;;;;;20.10;8.50;;;;;;;;;;5002340;28;21287;-79
2023/06/02 03:51:29;;;;;;;18.53;8.30;;;;;;;;;;5001493;28;20029;-78
2023/06/02 03:53:55;;;;;;;10.53;6.33;;;;;;;;;;5018026;28;20029;-78
2023/06/02 03:56:25;;;;;;;14.77;7.63;;;;;;;;;;5002035;28;21109;-79
2023/06/02 03:58:51;;;;;;;12.20;7.43;;;;;;;;;;5001074;28;20370;-78
2023/06/02 04:01:17;;;;;;;11.47;6.70;;;;;;;;;;5017180;28;20034;-79
2023/06/02 04:03:43;;;;;;;14.30;5.70;;;;;;;;;;5005132;28;20042;-78
2023/06/02 04:06:12;;;;;;;11.40;6.60;;;;;;;;;;5003369;28;20038;-79
2023/06/02 04:08:41;;;;;;;11.37;6.60;;;;;;;;;;5018490;28;20018;-78
2023/06/02 04:11:07;;;;;;;11.37;6.73;;;;;;;;;;5000834;28;20045;-79
2023/06/02 04:13:33;;;;;;;15.47;6.90;;;;;;;;;;5003267;28;20057;-79
2023/06/02 04:15:59;;;;;;;14.77;7.80;;;;;;;;;;5019531;28;20018;-78
2023/06/02 04:18:28;;;;;;;16.80;7.63;;;;;;;;;;4999615;28;20029;-78
2023/06/02 04:20:57;;;;;;;15.97;7.87;;;;;;;;;;4997847;28;20085;-80
2023/06/02 04:23:23;;;;;;;20.63;8.87;;;;;;;;;;5004315;28;20190;-79
2023/06/02 04:25:49;;;;;;;15.73;7.90;;;;;;;;;;5002291;28;20014;-78
2023/06/02 04:28:16;;;;;;;14.17;8.10;;;;;;;;;;5015740;28;20043;-79
2023/06/02 04:30:42;;;;;;;12.27;8.07;;;;;;;;;;5003219;28;20049;-78
2023/06/02 04:33:08;;;;;;;14.37;7.57;;;;;;;;;;5001731;28;20019;-79
2023/06/02 04:35:35;;;;;;;12.13;6.70;;;;;;;;;;5000729;28;20106;-80
2023/06/02 04:38:03;;;;;;;15.83;6.87;;;;;;;;;;5001236;28;20030;-79
2023/06/02 04:40:29;;;;;;;9.60;6.33;;;;;;;;;;5016103;28;20042;-79
2023/06/02 04:42:55;;;;;;;12.93;5.40;;;;;;;;;;5001995;28;20042;-78
2023/06/02 04:45:21;;;;;;;9.73;5.00;;;;;;;;;;5003318;28;20025;-80
2023/06/02 04:47:47;;;;;;;12.10;5.90;;;;;;;;;;5001823;28;20081;-78
2023/06/02 04:50:16;;;;;;;17.13;6.23;;;;;;;;;;5009888;28;20236;-78
2023/06/02 04:52:43;;;;;;;17.03;7.17;;;;;;;;;;5010668;28;20030;-80
2023/06/02 04:55:10;;;;;;;16.23;6.40;;;;;;;;;;5003339;28;20094;-79
2023/06/02 04:57:39;;;;;;;11.57;5.80;;;;;;;;;;5000262;28;20053;-79
2023/06/02 05:00:06;;;;;;;14.20;5.63;;;;;;;;;;5001258;28;20034;-79
2023/06/02 05:02:32;;;;;;;11.63;4.80;;;;;;;;;;5019372;28;20025;-79
2023/06/02 05:05:02;;;;;;;12.23;5.63;;;;;;;;;;4999934;28;20053;-78
2023/06/02 05:07:34;;;;;;;11.07;4.47;;;;;;;;;;5002618;28;20030;-78
2023/06/02 05:10:00;;;;;;;17.67;4.53;;;;;;;;;;5017986;28;20038;-78
2023/06/02 05:12:29;;;;;;;14.80;4.70;;;;;;;;;;4999784;28;20042;-78
2023/06/02 05:14:55;;;;;;;12.13;4.13;;;;;;;;;;5015539;28;20136;-80
2023/06/02 05:17:29;;;;;;;14.60;4.70;;;;;;;;;;5006280;28;20030;-80
2023/06/02 05:19:55;;;;;;;11.30;4.43;;;;;;;;;;5002893;28;20045;-79
2023/06/02 05:22:22;;;;;;;7.60;4.20;;;;;;;;;;4998036;28;20023;-79
2023/06/02 05:24:48;;;;;;;14.10;4.57;;;;;;;;;;5009751;28;20023;-77
2023/06/02 05:27:14;;;;;;;11.67;4.30;;;;;;;;;;5000953;28;20187;-79
2023/06/02 05:30:14;;;;;;;11.43;3.83;;;;;;;;;;5021108;28;20036;-78
2023/06/02 05:32:42;;;;;;;18.27;4.43;;;;;;;;;;4945883;28;20048;-78
2023/06/02 05:35:13;;;;;;;14.80;5.50;;;;;;;;;;4997656;28;20014;-80
2023/06/02 05:37:40;;;;;;;16.40;5.30;;;;;;;;;;4997270;28;20018;-80
2023/06/02 05:40:09;;;;;;;11.70;3.80;;;;;;;;;;5017770;28;20018;-79
2023/06/02 05:42:37;;;;;;;17.90;4.20;;;;;;;;;;5015111;28;20057;-77
2023/06/02 05:45:05;;;;;;;15.43;4.30;;;;;;;;;;5016960;28;20061;-79
2023/06/02 05:47:32;;;;;;;10.77;4.03;;;;;;;;;;5017911;28;20025;-78
2023/06/02 05:49:58;;;;;;;14.47;4.50;;;;;;;;;;4994775;28;20014;-80
2023/06/02 05:52:24;;;;;;;14.40;4.20;;;;;;;;;;5000320;28;20022;-78
2023/06/02 05:54:50;;;;;;;16.33;4.07;;;;;;;;;;5001854;28;20070;-80
2023/06/02 05:57:19;;;;;;;18.70;4.67;;;;;;;;;;5005996;28;20015;-79
2023/06/02 05:59:48;;;;;;;20.63;4.13;;;;;;;;;;5000924;28;20115;-79
2023/06/02 06:02:14;;;;;;;13.13;3.83;;;;;;;;;;5002588;28;20046;-80
2023/06/02 06:04:40;;;;;;;13.67;4.40;;;;;;;;;;5013977;28;20061;-79
2023/06/02 06:07:08;;;;;;;17.50;4.13;;;;;;;;;;5016229;28;20030;-79
2023/06/02 06:09:35;;;;;;;14.83;4.97;;;;;;;;;;5015195;28;20046;-79
2023/06/02 06:12:03;;;;;;;18.67;6.13;;;;;;;;;;5015755;28;20045;-78
2023/06/02 06:14:32;;;;;;;18.20;6.33;;;;;;;;;;5000086;28;20042;-78
2023/06/02 06:16:58;;;;;;;21.67;7.50;;;;;;;;;;5001994;28;20030;-80
2023/06/02 06:19:24;;;;;;;19.90;7.87;;;;;;;;;;4996901;28;20037;-77
2023/06/02 06:21:50;;;;;;;17.07;7.83;;;;;;;;;;5014092;28;20014;-79
2023/06/02 06:24:16;;;;;;;16.10;6.90;;;;;;;;;;4999060;28;20045;-79
2023/06/02 06:26:42;;;;;;;14.63;7.60;;;;;;;;;;5014725;28;20087;-78
2023/06/02 06:29:08;;;;;;;100.37;13.27;;;;;;;;;;4993701;28;20049;-78
2023/06/02 06:31:34;;;;;;;24.23;7.33;;;;;;;;;;4996749;28;20010;-77
2023/06/02 06:34:00;;;;;;;18.73;7.87;;;;;;;;;;5014269;28;20061;-80
2023/06/02 06:36:26;;;;;;;23.67;8.30;;;;;;;;;;5000072;28;20019;-80
2023/06/02 06:38:52;;;;;;;16.10;6.87;;;;;;;;;;4998055;28;20048;-79
2023/06/02 06:41:19;;;;;;;18.03;7.80;;;;;;;;;;5015386;28;20029;-79
2023/06/02 06:43:47;;;;;;;17.43;8.87;;;;;;;;;;5013383;28;20069;-79
2023/06/02 06:46:15;;;;;;;22.90;7.90;;;;;;;;;;4999387;28;20037;-78
2023/06/02 06:48:41;;;;;;;20.90;8.97;;;;;;;;;;5015291;28;20036;-81
2023/06/02 06:51:07;;;;;;;22.70;8.77;;;;;;;;;;5002620;28;20082;-78
2023/06/02 06:53:33;;;;;;;24.30;8.83;;;;;;;;;;5007703;28;20076;-79
2023/06/02 06:56:00;;;;;;;16.00;7.63;;;;;;;;;;5000891;28;20138;-79
2023/06/02 06:58:26;;;;;;;19.80;9.03;;;;;;;;;;5000942;28;20193;-80
2023/06/02 07:00:54;;;;;;;18.83;8.43;;;;;;;;;;5016846;28;20011;-79
2023/06/02 07:03:20;;;;;;;20.87;8.63;;;;;;;;;;5013364;28;20046;-78
2023/06/02 07:05:47;;;;;;;14.23;7.40;;;;;;;;;;5014398;28;20015;-77
2023/06/02 07:08:13;;;;;;;23.53;8.90;;;;;;;;;;5000322;28;20054;-78
2023/06/02 07:10:39;;;;;;;15.63;6.60;;;;;;;;;;5015832;28;20033;-80
2023/06/02 07:13:08;;;;;;;16.77;5.93;;;;;;;;;;5000208;28;20433;-79
2023/06/02 07:15:34;;;;;;;12.00;6.33;;;;;;;;;;5011007;28;20046;-78
2023/06/02 07:18:00;;;;;;;18.13;5.60;;;;;;;;;;5014915;28;20033;-79
2023/06/02 07:20:29;;;;;;;11.80;4.70;;;;;;;;;;5001079;28;20078;-78
2023/06/02 07:22:55;;;;;;;17.20;5.73;;;;;;;;;;5000484;28;20053;-78
2023/06/02 07:25:21;;;;;;;15.03;5.87;;;;;;;;;;5003687;28;20026;-79
2023/06/02 07:27:47;;;;;;;12.80;5.13;;;;;;;;;;5006765;28;20077;-79
2023/06/02 07:30:13;;;;;;;12.67;4.33;;;;;;;;;;5003621;28;20030;-79
2023/06/02 07:32:39;;;;;;;16.07;5.93;;;;;;;;;;5018952;28;20097;-78
2023/06/02 07:35:05;;;;;;;15.43;5.07;;;;;;;;;;5005636;28;20018;-78
2023/06/02 07:37:32;;;;;;;16.27;5.73;;;;;;;;;;5001922;28;20011;-78
2023/06/02 07:39:58;;;;;;;12.20;5.30;;;;;;;;;;5016055;28;20061;-79
2023/06/02 07:42:24;;;;;;;16.20;5.60;;;;;;;;;;5016751;28;20053;-77
2023/06/02 07:44:50;;;;;;;15.27;5.97;;;;;;;;;;5004021;28;20045;-78
2023/06/02 07:47:16;;;;;;;16.83;5.70;;;;;;;;;;5017820;28;20099;-80
2023/06/02 07:49:42;;;;;;;29.23;6.77;;;;;;;;;;5004129;28;20023;-79
2023/06/02 07:52:10;;;;;;;19.83;6.67;;;;;;;;;;5009472;28;20031;-78
2023/06/02 07:54:36;;;;;;;15.97;6.10;;;;;;;;;;5005809;28;20018;-80
2023/06/02 07:57:02;;;;;;;11.23;6.07;;;;;;;;;;5006393;28;20014;-78
2023/06/02 07:59:28;;;;;;;11.13;5.87;;;;;;;;;;5014128;28;20082;-79
2023/06/02 08:01:54;;;;;;;12.27;6.07;;;;;;;;;;5004959;28;20131;-80
2023/06/02 08:04:25;;;;;;;17.30;6.47;;;;;;;;;;5004025;28;20038;-79
2023/06/02 08:06:51;;;;;;;15.10;6.37;;;;;;;;;;5004903;28;20046;-78
2023/06/02 08:09:17;;;;;;;14.90;5.90;;;;;;;;;;5016905;28;20026;-78
2023/06/02 08:11:44;;;;;;;16.53;5.17;;;;;;;;;;5016698;28;20022;-79
2023/06/02 08:14:10;;;;;;;13.47;5.73;;;;;;;;;;5002571;28;20029;-78
2023/06/02 08:16:36;;;;;;;17.93;6.50;;;;;;;;;;5012440;28;20026;-79
2023/06/02 08:19:02;;;;;;;12.40;6.20;;;;;;;;;;5007731;28;20029;-79
2023/06/02 08:21:32;;;;;;;18.30;6.33;;;;;;;;;;4998788;28;20049;-78
2023/06/02 08:23:58;;;;;;;14.40;6.57;;;;;;;;;;5017464;28;20097;-78
2023/06/02 08:26:26;;;;;;;20.23;5.50;;;;;;;;;;5018367;28;20030;-80
2023/06/02 08:28:53;;;;;;;18.70;6.67;;;;;;;;;;5001338;28;20049;-79
2023/06/02 08:31:22;;;;;;;11.13;5.50;;;;;;;;;;5004384;28;20028;-79
2023/06/02 08:33:52;;;;;;;14.13;5.40;;;;;;;;;;5003903;28;20049;-79
2023/06/02 08:36:19;;;;;;;15.37;5.60;;;;;;;;;;5001881;28;20029;-79
2023/06/02 08:38:47;;;;;;;16.17;5.43;;;;;;;;;;5001352;28;20090;-80
2023/06/02 08:41:16;;;;;;;14.43;5.10;;;;;;;;;;5002558;28;20010;-79
2023/06/02 08:43:42;;;;;;;18.80;6.03;;;;;;;;;;5002114;28;20031;-78
2023/06/02 08:46:15;;;;;;;19.40;6.20;;;;;;;;;;5008399;28;20025;-79
2023/06/02 08:48:45;;;;;;;19.03;5.27;;;;;;;;;;5000500;28;20026;-78
2023/06/02 08:51:11;;;;;;;12.07;5.40;;;;;;;;;;4998415;28;20038;-79
2023/06/02 08:53:39;;;;;;;11.15;5.32;;;;;;;;;;4999041;28;20014;-79
2023/06/02 08:56:05;;;;;;;14.27;5.05;;;;;;;;;;5000276;28;20014;-79
2023/06/02 08:58:31;;;;;;;15.70;5.50;;;;;;;;;;5016828;28;20091;-79
2023/06/02 09:00:57;;;;;;;14.20;4.90;;;;;;;;;;5005650;28;20028;-79
2023/06/02 09:03:27;;;;;;;14.80;5.13;;;;;;;;;;5002190;28;20039;-78
2023/06/02 09:05:53;;;;;;;22.57;5.90;;;;;;;;;;4997743;28;20041;-77
2023/06/02 09:08:19;;;;;;;19.80;6.18;;;;;;;;;;4997247;28;20019;-78
2023/06/02 09:10:47;;;;;;;12.13;5.47;;;;;;;;;;5003338;28;20026;-77
2023/06/02 09:13:30;;;;;;;16.10;4.90;;;;;;;;;;4996735;28;20022;-78
2023/06/02 09:15:59;;;;;;;;;;;;;;;;;;5003103;28;20038;-79
2023/06/02 09:18:26;;;;;;;14.40;5.32;;;;;;;;;;4997620;28;19925;-79
2023/06/02 09:20:58;;;;;;;15.00;5.93;;;;;;;;;;4997501;28;20046;-78
2023/06/02 09:23:39;;;;;;;12.70;5.30;;;;;;;;;;5016526;28;20034;-79
2023/06/02 09:26:17;;;;;;;11.93;5.50;;;;;;;;;;5000751;28;20099;-78
2023/06/02 09:28:46;;;;;;;16.58;5.80;;;;;;;;;;4999503;28;20050;-79
2023/06/02 09:31:13;;;;;;;12.63;5.72;;;;;;;;;;5002003;28;20049;-79
2023/06/02 09:33:39;;;;;;;11.43;5.83;;;;;;;;;;5015126;28;20033;-77
2023/06/02 09:36:21;;;;;;;15.23;5.75;;;;;;;;;;5014700;28;20106;-80
2023/06/02 09:38:47;;;;;;;10.50;5.32;;;;;;;;;;5015799;28;20077;-78
2023/06/02 09:41:17;;;;;;;17.95;6.75;;;;;;;;;;5011096;28;20029;-79
2023/06/02 09:43:51;;;;;;;11.23;5.22;;;;;;;;;;5017174;28;20056;-78
2023/06/02 09:46:20;;;;;;;16.20;5.35;;;;;;;;;;5010929;28;20019;-78
2023/06/02 09:48:56;;;;;;;16.25;6.18;;;;;;;;;;4997710;28;20045;-79
2023/06/02 09:51:25;;;;;;;15.40;5.13;;;;;;;;;;5002180;28;20027;-77
2023/06/02 09:53:51;;;;;;;12.65;6.20;;;;;;;;;;5006850;28;20040;-80
2023/06/02 09:56:21;;;;;;;16.00;6.13;;;;;;;;;;4997863;28;20018;-79
2023/06/02 09:58:47;;;;;;;20.73;6.93;;;;;;;;;;5015649;28;20034;-78
2023/06/02 10:01:14;;;;;;;12.05;5.32;;;;;;;;;;5002671;28;20026;-79
2023/06/02 10:03:44;;;;;;;24.37;5.80;;;;;;;;;;5019514;28;20117;-79
2023/06/02 10:06:12;;;;;;;15.70;5.67;;;;;;;;;;5000707;28;20042;-80
2023/06/02 10:09:00;;;;;;;17.15;5.68;;;;;;;;;;5014241;28;20026;-78
2023/06/02 10:11:31;;;;;;;16.05;5.75;;;;;;;;;;5009327;28;20026;-79
2023/06/02 10:14:13;;;;;;;18.70;6.93;;;;;;;;;;4999259;28;20025;-78
2023/06/02 10:17:01;;;;;;;11.23;5.43;;;;;;;;;;5001931;28;20017;-79
2023/06/02 10:19:39;;;;;;;18.77;6.77;;;;;;;;;;5002020;28;20110;-79
2023/06/02 10:22:20;;;;;;;13.70;5.80;;;;;;;;;;5015761;28;20057;-79
2023/06/02 10:24:50;;;;;;;15.02;6.03;;;;;;;;;;5012220;28;20104;-78
2023/06/02 10:27:23;;;;;;;18.17;6.18;;;;;;;;;;5001221;28;20086;-80
2023/06/02 10:29:55;;;;;;;14.93;5.82;;;;;;;;;;5013433;28;20038;-80
2023/06/02 10:32:22;;;;;;;;;;;;;;;;;;5001407;28;20046;-77
2023/06/02 10:34:52;;;;;;;14.55;6.03;;;;;;;;;;5009258;28;19940;-78
2023/06/02 10:37:19;;;;;;;16.83;7.10;;;;;;;;;;5008482;28;20582;-78
2023/06/02 10:39:47;;;;;;;13.47;5.93;;;;;;;;;;5016759;28;20017;-78
2023/06/02 10:42:16;;;;;;;13.75;6.45;;;;;;;;;;5014111;28;20049;-80
2023/06/02 10:44:43;;;;;;;18.90;6.63;;;;;;;;;;4997950;28;20021;-79
2023/06/02 10:47:36;;;;;;;19.92;6.85;;;;;;;;;;4997174;28;20022;-78
2023/06/02 10:50:09;;;;;;;11.88;5.90;;;;;;;;;;4995751;28;20049;-78
2023/06/02 10:52:55;;;;;;;15.67;6.33;;;;;;;;;;5014315;28;20026;-79
2023/06/02 10:55:21;;;;;;;19.00;7.43;;;;;;;;;;4993756;28;20023;-78
2023/06/02 10:57:53;;;;;;;18.07;6.67;;;;;;;;;;5012481;28;20048;-79
2023/06/02 11:00:44;;;;;;;16.00;6.35;;;;;;;;;;5006267;28;20049;-79
2023/06/02 11:03:10;;;;;;;14.10;6.70;;;;;;;;;;5001480;28;20061;-80
2023/06/02 11:05:37;;;;;;;12.85;6.15;;;;;;;;;;4999418;28;20089;-80
2023/06/02 11:08:15;;;;;;;25.08;6.78;;;;;;;;;;5000257;28;20026;-79
2023/06/02 11:10:44;;;;;;;13.32;6.30;;;;;;;;;;5007097;28;20033;-78
2023/06/02 11:13:13;;;;;;;18.63;6.57;;;;;;;;;;5008702;28;20041;-78
2023/06/02 11:15:42;;;;;;;16.50;7.00;;;;;;;;;;4998183;28;20018;-78
2023/06/02 11:18:31;;;;;;;15.43;6.90;;;;;;;;;;5014293;28;20091;-79
2023/06/02 11:20:58;;;;;;;15.95;6.78;;;;;;;;;;5007900;28;20022;-79
2023/06/02 11:23:24;;;;;;;17.23;6.05;;;;;;;;;;4998810;28;20090;-80
2023/06/02 11:26:05;;;;;;;13.10;6.00;;;;;;;;;;5002384;28;20053;-80
2023/06/02 11:28:31;;;;;;;15.73;6.78;;;;;;;;;;5015330;28;20050;-79
2023/06/02 11:31:14;;;;;;;12.70;5.53;;;;;;;;;;4997888;28;20022;-79
2023/06/02 11:33:51;;;;;;;18.00;6.13;;;;;;;;;;5013751;28;20077;-79
2023/06/02 11:36:28;;;;;;;18.55;6.85;;;;;;;;;;5014155;28;20023;-78
2023/06/02 11:39:04;;;;;;;10.15;5.82;;;;;;;;;;4999299;28;20011;-79
2023/06/02 11:41:31;;;;;;;12.00;5.93;;;;;;;;;;4998901;28;20030;-79
2023/06/02 11:44:04;;;;;;;17.83;6.00;;;;;;;;;;5013524;28;20057;-79
2023/06/02 11:46:30;;;;;;;16.33;6.07;;;;;;;;;;5001324;28;20039;-78
2023/06/02 11:48:59;;;;;;;19.60;6.55;;;;;;;;;;4999390;28;20028;-79
2023/06/02 11:51:25;;;;;;;17.40;6.57;;;;;;;;;;4996484;28;20035;-80
2023/06/02 11:54:06;;;;;;;12.52;6.80;;;;;;;;;;5015684;28;20042;-81
2023/06/02 11:56:32;;;;;;;12.02;6.10;;;;;;;;;;5011904;28;20047;-81
2023/06/02 11:59:01;;;;;;;12.98;6.82;;;;;;;;;;4999576;28;20019;-78
2023/06/02 12:01:31;;;;;;;15.55;7.07;;;;;;;;;;5013868;28;20178;-79
2023/06/02 12:04:02;;;;;;;11.80;6.38;;;;;;;;;;4995202;28;20158;-81
2023/06/02 12:06:28;;;;;;;14.95;7.03;;;;;;;;;;5005434;28;20033;-80
2023/06/02 12:08:57;;;;;;;15.57;6.68;;;;;;;;;;5009088;28;20062;-77
2023/06/02 12:11:24;;;;;;;18.00;9.05;;;;;;;;;;5015439;28;20050;-81
2023/06/02 12:13:59;;;;;;;17.80;7.95;;;;;;;;;;5000154;28;20023;-78
2023/06/02 12:16:25;;;;;;;12.07;7.05;;;;;;;;;;5008345;28;20026;-79
2023/06/02 12:18:53;;;;;;;14.20;7.82;;;;;;;;;;5015811;28;20045;-77
2023/06/02 12:21:27;;;;;;;13.90;7.28;;;;;;;;;;5013708;28;20090;-79
2023/06/02 12:23:56;;;;;;;15.65;7.75;;;;;;;;;;5014050;28;20077;-80
2023/06/02 12:26:24;;;;;;;15.60;6.93;;;;;;;;;;5000829;28;20035;-81
2023/06/02 12:28:51;;;;;;;13.65;7.25;;;;;;;;;;5000767;28;20094;-78
2023/06/02 12:31:18;;;;;;;15.15;5.50;;;;;;;;;;5005610;28;20022;-80
2023/06/02 12:33:44;;;;;;;15.27;5.78;;;;;;;;;;4998328;28;20022;-79
2023/06/02 12:36:10;;;;;;;13.40;5.88;;;;;;;;;;5009810;28;20050;-84
2023/06/02 12:38:37;;;;;;;13.38;6.05;;;;;;;;;;4996427;28;21383;-87
2023/06/02 12:41:03;;;;;;;7.50;4.70;;;;;;;;;;4979424;28;20109;-86
2023/06/02 12:43:29;;;;;;;14.68;5.47;;;;;;;;;;4988492;28;20031;-88
2023/06/02 12:45:55;;;;;;;15.23;4.80;;;;;;;;;;4989764;28;20034;-87
2023/06/02 12:48:21;;;;;;;10.43;4.78;;;;;;;;;;4983242;28;20027;-88
2023/06/02 12:50:47;;;;;;;29.35;5.18;;;;;;;;;;4989145;28;20431;-86
2023/06/02 12:53:18;;;;;;;13.75;5.53;;;;;;;;;;4976069;28;20058;-82
2023/06/02 12:55:44;;;;;;;12.18;4.57;;;;;;;;;;4984701;28;20062;-85
2023/06/02 12:58:10;;;;;;;17.20;5.03;;;;;;;;;;4975230;28;20165;-86
2023/06/02 13:00:39;;;;;;;14.18;5.13;;;;;;;;;;4978251;28;20034;-83
2023/06/02 13:03:05;;;;;;;14.63;4.72;;;;;;;;;;5001204;28;20034;-81
2023/06/02 13:05:31;;;;;;;14.52;4.68;;;;;;;;;;5009587;28;20037;-78
2023/06/02 13:07:58;;;;;;;12.35;5.03;;;;;;;;;;5000150;28;20050;-78
2023/06/02 13:10:24;;;;;;;8.52;4.38;;;;;;;;;;5011779;28;20406;-79
2023/06/02 13:12:50;;;;;;;13.95;4.57;;;;;;;;;;5014491;28;20057;-80
2023/06/02 13:15:16;;;;;;;10.63;3.83;;;;;;;;;;4997052;28;20045;-77
2023/06/02 13:17:42;;;;;;;20.10;4.20;;;;;;;;;;5013411;28;20018;-79
2023/06/02 13:20:08;;;;;;;11.32;4.10;;;;;;;;;;4996693;28;20030;-79
2023/06/02 13:22:34;;;;;;;13.93;4.85;;;;;;;;;;4992203;28;20030;-78
2023/06/02 13:25:01;;;;;;;10.65;4.43;;;;;;;;;;4992772;28;20084;-78
2023/06/02 13:27:28;;;;;;;9.75;4.30;;;;;;;;;;4995821;28;20038;-80
2023/06/02 13:29:54;;;;;;;10.40;4.15;;;;;;;;;;5008396;28;20027;-77
2023/06/02 13:32:20;;;;;;;9.85;4.15;;;;;;;;;;5011260;28;20074;-80
2023/06/02 13:34:56;;;;;;;13.02;4.32;;;;;;;;;;5011938;28;20074;-78
2023/06/02 13:37:25;;;;;;;21.08;5.50;;;;;;;;;;4995520;28;20027;-79
2023/06/02 13:39:51;;;;;;;11.55;4.40;;;;;;;;;;5001174;28;20064;-79
2023/06/02 13:42:17;;;;;;;9.95;4.40;;;;;;;;;;4997294;28;20133;-80
2023/06/02 13:44:43;;;;;;;13.85;4.85;;;;;;;;;;5009495;28;20038;-78
2023/06/02 13:47:09;;;;;;;9.05;5.03;;;;;;;;;;5013228;28;20041;-78
2023/06/02 13:49:36;;;;;;;12.25;5.38;;;;;;;;;;4994005;28;20016;-80
2023/06/02 13:52:02;;;;;;;12.13;5.55;;;;;;;;;;5011003;28;20093;-79
2023/06/02 13:54:28;;;;;;;11.77;5.07;;;;;;;;;;5000101;28;20041;-79
2023/06/02 13:56:54;;;;;;;12.20;5.22;;;;;;;;;;5011854;28;20150;-79
2023/06/02 13:59:20;;;;;;;11.77;4.65;;;;;;;;;;4999028;28;20057;-77
2023/06/02 14:01:46;;;;;;;10.70;5.05;;;;;;;;;;5005884;28;20051;-80
2023/06/02 14:04:12;;;;;;;14.23;5.80;;;;;;;;;;5011999;28;20026;-78
2023/06/02 14:06:38;;;;;;;17.30;6.50;;;;;;;;;;5011165;28;20034;-81
2023/06/02 14:09:05;;;;;;;12.25;5.80;;;;;;;;;;4997173;28;20130;-81
2023/06/02 14:11:32;;;;;;;12.00;5.35;;;;;;;;;;4995641;28;20056;-78
2023/06/02 14:13:58;;;;;;;14.40;5.28;;;;;;;;;;4996651;28;20052;-79
2023/06/02 14:16:24;;;;;;;17.23;6.18;;;;;;;;;;4992444;28;20026;-80
2023/06/02 14:18:50;;;;;;;14.52;5.60;;;;;;;;;;5011574;28;20424;-80
2023/06/02 14:21:16;;;;;;;15.68;5.80;;;;;;;;;;4994287;28;20033;-80
2023/06/02 14:23:42;;;;;;;17.80;5.47;;;;;;;;;;5008651;28;20050;-79
2023/06/02 14:26:11;;;;;;;9.68;4.93;;;;;;;;;;4996827;28;20038;-79
2023/06/02 14:28:37;;;;;;;11.60;4.43;;;;;;;;;;5010049;28;20029;-80
2023/06/02 14:31:03;;;;;;;11.75;4.28;;;;;;;;;;5014098;28;20014;-78
2023/06/02 14:33:29;;;;;;;15.70;4.28;;;;;;;;;;4993956;28;20019;-80
2023/06/02 14:35:55;;;;;;;14.15;4.07;;;;;;;;;;4995142;28;20026;-80
2023/06/02 14:38:21;;;;;;;10.02;4.00;;;;;;;;;;4994744;28;20042;-81